METAR / TAF

La lista dei METAR e dei TAF non è pensata per essere utilizzata per i briefing meteorologici (in particolare per ragioni tecniche non è possibile garantire la sua costante disponibilità e un aggiornamento continuo). Per i briefing meteorologici si consiglia di utilizzare lo skybriefing di Skyguide oppure il TAMSI (piattaforma  di MeteoSvizzera per l’autobriefing per i professionisti dell’aviazione – per informazioni utilizzare il formulario di contatto).

 

METAR Svizzera

METAR     LSZH 260720Z 03007KT 360V060 9999 FEW021 SCT030 BKN055
               04/M01 Q1029 NOSIG=
METAR     LSZH 260750Z 05006KT 010V080 9999 RA FEW020 SCT033 BKN052
               04/M01 Q1029 NOSIG=
METAR     LSGG 260720Z 03016G27KT 360V060 9999 FEW040 06/M03 Q1026
               NOSIG=
METAR     LSGG 260750Z 03018G30KT 9999 FEW040 06/M03 Q1026 NOSIG=
METAR     LFSB 260730Z NIL=
METAR     LSZB 260720Z VRB01KT 9999 FEW025 BKN050 03/M02 Q1027
               NOSIG=
METAR     LSZB 260750Z 02006KT 320V090 9999 FEW026 SCT031 BKN050
               04/M01 Q1028 NOSIG=
METAR     LSZA 260720Z 19008KT 120V220 9999 FEW065 07/00 Q1022
               NOSIG=
METAR     LSZA 260750Z 18009KT 120V210 9999 FEW035 07/01 Q1022
               NOSIG=
METAR     LSZG 260720Z 05007KT 9999 BKN050 06/M01 Q1028 NOSIG=
METAR     LSZG 260750Z 06011KT 9999 SCT041 BKN050 06/M03 Q1028
               NOSIG=
METAR     LSZR 260720Z VRB03KT 9999 FEW020 BKN043 04/00 Q1029 NOSIG
               RMK C=
METAR     LSZR 260750Z VRB03KT 9999 FEW020 BKN043 04/00 Q1029 NOSIG
               RMK C=
METAR     LSGS 260720Z 09007KT 9999 FEW060 04/M02 Q1025=
METAR     LSGS 260750Z 07006KT 020V110 9999 FEW060 05/M02 Q1025=
METAR     LSGC 260720Z AUTO 06010KT 040V100 9999 FEW019 BKN024
               BKN029 M01/M04 Q1026=
METAR     LSGC 260750Z 06010KT 9999 FEW020 BKN027 M01/M04 Q1026
               RESN WS R06=
METAR     LSZC 260720Z AUTO VRB07KT 9999 OVC050 04/01 Q1028=
METAR     LSZC 260750Z VRB01KT 9999 SCT020 BKN042 04/00 Q1028=
METAR     LSZL 260720Z 07004KT 360V160 9999 FEW100 10/M07 Q1022 RMK
               BLU+=
METAR     LSZL 260750Z 26008KT 220V340 9999 FEW090 10/M01 Q1022 RMK
               BLU+=
METAR     LSZS 260720Z 03013KT 9999 FEW070 M07/M10 Q1020 RMK B=
METAR     LSZS 260750Z 02013KT 9999 FEW070 M06/M10 Q1020 RMK C=
METAR     LSMA 260720Z 02010G20KT 310V060 9999 -SHRA SCT023 SCT036
               BKN050 04/M00 Q1028 RMK BLU=
METAR     LSMA 260750Z 05009KT 010V080 9999 FEW024 SCT029 BKN060
               04/M01 Q1028 RMK BLU=
METAR     LSMD 260720Z 04005KT 360V080 9999 OVC052 04/00 Q1029 RMK
               BLU=
METAR     LSMD 260750Z 05008KT 9999 FEW022 OVC054 04/M00 Q1029 RMK
               BLU=
METAR     LSME 260720Z 03009KT 9999 FEW021 SCT026 BKN052 04/M00
               Q1028 RMK BLU=
METAR     LSME 260750Z 04008KT 010V070 9999 SCT023 BKN061 04/00
               Q1029 RMK BLU=
METAR     LSMM 260720Z VRB07KT 9999 -SHRASN SCT013 BKN028 03/M01
               Q1027 RMK BLU=
METAR     LSMM 260750Z VRB08KT 9999 BKN013 BKN028 03/M01 Q1027 RMK
               GRN=
METAR     LSMP 260720Z 05009KT 010V070 9999 OVC056 04/M01 Q1028 RMK
               BLU=
METAR     LSMP 260750Z 05010KT 020V080 9999 OVC052 05/M01 Q1028 RMK
               BLU=
METAR     LSMS 260720Z 09007KT 9999 FEW060 04/M02 Q1025 RMK BLU+=
METAR     LSMS 260750Z 07006KT 020V110 9999 FEW060 05/M02 Q1025 RMK
               BLU+=
aggiornamento martedì 26 marzo 2019 ore 09:02

TAF Svizzera

TAF AAA LSZH 260647Z 2606/2712 03008KT 9999 FEW030 BKN050
             TX10/2614Z TN02/2606Z TN00/2705Z BECMG 2618/2621
             VRB03KT BECMG 2706/2710 04011KT=
TAF     LSZH 260525Z 2606/2712 VRB03KT 9999 FEW040 BKN050
             TX10/2614Z TN02/2606Z TN00/2705Z TEMPO 2607/2621
             03007KT BECMG 2707/2710 05009KT=
TAF     LSGG 260525Z 2606/2712 05010KT 9999 SCT050 TX11/2615Z
             TN04/2606Z TN02/2705Z BECMG 2608/2610 05015G30KT
             CAVOK BECMG 2617/2620 05010KT BECMG 2707/2709
             05020G35KT=
TAF     LFSB 260500Z 2606/2706 35008KT 9999 FEW010 BKN050 PROB30
             TEMPO 2606/2608 BKN005 BECMG 2620/2622 VRB03KT PROB30
             TEMPO 2703/2706 4000 BR=
TAF     LSGS 260525Z 2606/2615 VRB03KT CAVOK BECMG 2609/2611
             25012KT=
TAF     LSZA 260525Z 2606/2615 03012G25KT CAVOK=
TAF     LSZB 260525Z 2606/2615 VRB03KT 9999 BKN050 BECMG 2607/2610
             03010KT=
TAF     LSZG 260525Z 2606/2615 03009KT 9999 BKN050 BECMG 2608/2610
             04015G25KT=
TAF     LSZL 260525Z 2606/2615 VRB03KT 9999 FEW100 TEMPO 2606/2615
             CAVOK BECMG 2607/2611 08015G25KT=
TAF     LSZR 260525Z 2606/2615 VRB03KT 9999 SCT030 BKN050=
TAF     LSGC 260525Z 2606/2615 05010KT 9999 BKN030 BECMG 2608/2611
             FEW040=
TAF     LSZC 260525Z 2606/2615 36010KT 9999 -RA SCT020 BKN040=
TAF     LSZS 260525Z 2606/2615 03006KT 9999 FEW070 TX02/2615Z
             PROB40 2611/2615 CAVOK=
TAF AAA LSMA 260639Z 2606/2623 VRB03KT 9999 SCT040 OVC055 PROB40
             TEMPO 2517/2519 02015G25KT TEMPO 2517/2610 SHRA
             SCT040TCU TEMPO 2606/2618 04010KT PROB30 TEMPO
             2606/2617 04015G25KT=
TAF     LSMA 251625Z 2517/2623 VRB03KT 9999 SCT040 OVC055 PROB40
             TEMPO 2517/2519 02015G25KT TEMPO 2517/2610 SHRA
             SCT040TCU TEMPO 2610/2616 04012KT=
TAF     LSMD 251625Z 2517/2623 32010KT 9999 BKN065 TEMPO 2517/2518
             33012G25KT TEMPO 2517/2522 SHRA SCT040TCU BECMG
             2518/2521 VRB03KT PROB40 TEMPO 2522/2609 SHRA
             FEW040TCU=
TAF     LSME 251625Z 2517/2623 VRB03KT 9999 FEW050 SCT090 BKN110
             PROB30 TEMPO 2517/2518 32015G25KT TEMPO 2517/2522
             SHRA SCT040TCU PROB40 TEMPO 2522/2609 SHRA FEW040TCU=
TAF     LSMM 251625Z 2517/2623 13007KT 8000 FEW016 SCT020 OVC035
             TEMPO 2517/2521 SHRA FEW040TCU TEMPO 2521/2610 4000
             SHRASN BKN014 PROB30 TEMPO 2612/2618 07012G25KT=
TAF     LSMP 260525Z 2606/2712 03007KT 9999 SCT050 BECMG 2608/2611
             03010G20KT CAVOK BECMG 2617/2620 VRB03KT BECMG
             2709/2712 03010G20KT=
aggiornamento martedì 26 marzo 2019 ore 09:03